Time;durP1;ratioP1;P1;durP2;ratioP2;P2;SDS_P1;SDS_P2;PMS_P1;PMS_P2;Temp;Humidity;BMP_temperature;BMP_pressure;BME280_temperature;BME280_humidity;BME280_pressure;Samples;Min_cycle;Max_cycle;Signal;HPM_P1;HPM_P2
2021/04/11 00:00:40;;;;;;;83.20;51.92;;;;;;;9.89;54.26;100170.72;5025274;28;20079;-74
2021/04/11 00:03:09;;;;;;;91.78;52.53;;;;;;;9.80;54.34;100176.66;5024803;28;20049;-74
2021/04/11 00:05:39;;;;;;;94.07;50.78;;;;;;;9.73;54.47;100171.81;5021674;28;20053;-74
2021/04/11 00:08:08;;;;;;;92.25;51.90;;;;;;;9.66;54.73;100169.72;5025028;28;20107;-76
2021/04/11 00:10:37;;;;;;;86.50;52.20;;;;;;;9.56;54.94;100172.13;5024141;28;20061;-74
2021/04/11 00:13:07;;;;;;;80.43;51.90;;;;;;;9.49;55.52;100165.59;5023600;28;20049;-75
2021/04/11 00:15:34;;;;;;;93.00;58.95;;;;;;;9.39;55.88;100157.50;5025243;28;20056;-74
2021/04/11 00:18:01;;;;;;;91.45;54.85;;;;;;;9.33;56.14;100164.03;5024410;28;20084;-76
2021/04/11 00:20:27;;;;;;;80.63;46.38;;;;;;;9.32;56.08;100172.88;5023853;28;20097;-73
2021/04/11 00:22:54;;;;;;;79.93;48.03;;;;;;;9.37;55.91;100168.13;5025044;28;20053;-73
2021/04/11 00:25:23;;;;;;;83.55;47.38;;;;;;;9.39;55.77;100160.13;5024747;28;20049;-74
2021/04/11 00:27:49;;;;;;;77.93;48.38;;;;;;;9.38;55.50;100168.97;5024226;28;20091;-73
2021/04/11 00:30:17;;;;;;;82.22;49.55;;;;;;;9.36;55.71;100178.78;5024661;28;20049;-78
2021/04/11 00:32:43;;;;;;;81.53;48.40;;;;;;;9.34;55.41;100178.06;5024171;28;20057;-73
2021/04/11 00:35:11;;;;;;;108.78;58.47;;;;;;;9.29;55.83;100173.09;5023884;28;20053;-74
2021/04/11 00:37:37;;;;;;;93.28;55.70;;;;;;;9.31;55.85;100171.22;5023469;28;20152;-78
2021/04/11 00:40:10;;;;;;;105.25;61.85;;;;;;;9.30;55.95;100180.06;5024239;28;20060;-74
2021/04/11 00:42:42;;;;;;;99.10;56.78;;;;;;;9.28;56.03;100176.69;5022752;28;20106;-75
2021/04/11 00:45:19;;;;;;;100.50;59.42;;;;;;;9.27;56.01;100182.88;5022192;28;20045;-75
2021/04/11 00:47:46;;;;;;;88.90;51.78;;;;;;;9.28;55.83;100181.94;5023588;28;20045;-75
2021/04/11 00:50:15;;;;;;;81.63;47.00;;;;;;;9.30;55.91;100176.59;5024151;28;20049;-73
2021/04/11 00:52:44;;;;;;;82.80;42.88;;;;;;;9.29;55.82;100182.78;5024276;28;20050;-78
2021/04/11 00:55:13;;;;;;;80.47;47.78;;;;;;;9.29;55.97;100178.38;5023273;28;20053;-73
2021/04/11 00:57:41;;;;;;;91.57;48.80;;;;;;;9.24;56.20;100171.72;5024859;28;20516;-76
2021/04/11 01:00:09;;;;;;;80.22;44.25;;;;;;;9.23;56.21;100178.78;5024461;28;20073;-76
2021/04/11 01:02:37;;;;;;;79.43;46.17;;;;;;;9.26;56.20;100178.59;5023469;28;20106;-78
2021/04/11 01:05:09;;;;;;;76.03;48.42;;;;;;;9.21;56.20;100170.16;5025215;28;20079;-76
2021/04/11 01:07:35;;;;;;;73.63;43.50;;;;;;;9.16;56.21;100174.88;5022553;28;20053;-80
2021/04/11 01:10:02;;;;;;;76.82;45.13;;;;;;;9.17;56.20;100172.16;5023680;28;20061;-73
2021/04/11 01:12:29;;;;;;;81.30;43.33;;;;;;;9.16;56.34;100169.59;5024163;28;20049;-76
2021/04/11 01:14:56;;;;;;;73.13;40.50;;;;;;;9.13;56.14;100170.66;5023477;28;20049;-77
2021/04/11 01:17:23;;;;;;;74.68;41.55;;;;;;;9.09;56.25;100173.59;5024157;28;20049;-77
2021/04/11 01:19:51;;;;;;;64.90;40.80;;;;;;;9.04;56.37;100163.41;5024836;28;20699;-76
2021/04/11 01:22:27;;;;;;;71.30;43.17;;;;;;;8.99;56.43;100166.31;5024671;28;20122;-77
2021/04/11 01:24:57;;;;;;;73.20;44.85;;;;;;;8.94;56.63;100168.41;5022891;28;20052;-73
2021/04/11 01:27:28;;;;;;;76.32;44.97;;;;;;;8.94;56.66;100168.41;5024194;28;20719;-76
2021/04/11 01:29:57;;;;;;;74.28;47.53;;;;;;;8.93;56.76;100156.22;5023619;28;20046;-80
2021/04/11 01:32:24;;;;;;;75.75;44.22;;;;;;;8.90;56.77;100160.84;5022817;28;20143;-74
2021/04/11 01:34:54;;;;;;;70.03;43.28;;;;;;;8.91;56.85;100159.88;5023683;28;20525;-73
2021/04/11 01:37:21;;;;;;;62.50;35.45;;;;;;;8.88;56.82;100155.66;5022346;28;20060;-76
2021/04/11 01:39:48;;;;;;;69.38;37.95;;;;;;;8.88;56.79;100150.41;5027410;28;20049;-73
2021/04/11 01:42:16;;;;;;;65.88;38.97;;;;;;;8.88;56.85;100149.56;5027908;28;20194;-78
2021/04/11 01:44:45;;;;;;;67.25;39.85;;;;;;;8.87;56.74;100150.50;5028606;28;20052;-79
2021/04/11 01:47:14;;;;;;;66.80;40.33;;;;;;;8.85;56.85;100144.50;5027309;28;20075;-79
2021/04/11 01:49:41;;;;;;;59.47;37.45;;;;;;;8.83;56.88;100141.97;5028313;28;20054;-78
2021/04/11 01:52:14;;;;;;;62.40;37.22;;;;;;;8.82;56.98;100137.63;5026024;28;20111;-73
2021/04/11 01:54:41;;;;;;;60.97;40.25;;;;;;;8.75;57.11;100136.34;5028495;28;20661;-76
2021/04/11 01:57:10;;;;;;;71.10;41.42;;;;;;;8.68;57.30;100137.72;5028725;28;20604;-77
2021/04/11 01:59:38;;;;;;;71.25;41.78;;;;;;;8.61;57.45;100130.22;5028940;28;20053;-74
2021/04/11 02:02:06;;;;;;;64.38;41.28;;;;;;;8.57;57.47;100134.03;5029680;28;20049;-74
2021/04/11 02:04:33;;;;;;;73.90;43.88;;;;;;;8.52;57.43;100138.75;5028028;28;20061;-78
2021/04/11 02:07:03;;;;;;;74.25;44.00;;;;;;;8.48;57.71;100131.13;5026408;28;20446;-79
2021/04/11 02:09:33;;;;;;;62.17;38.88;;;;;;;8.46;57.77;100133.84;5028423;28;20056;-74
2021/04/11 02:12:01;;;;;;;69.25;39.75;;;;;;;8.44;57.91;100140.19;5028029;28;20059;-78
2021/04/11 02:14:28;;;;;;;72.47;41.42;;;;;;;8.45;57.98;100141.88;5028450;28;20045;-76
2021/04/11 02:16:56;;;;;;;78.97;43.28;;;;;;;8.41;57.92;100128.88;5028769;28;20041;-75
2021/04/11 02:19:24;;;;;;;67.65;41.28;;;;;;;8.38;58.13;100131.72;5028035;28;20049;-77
2021/04/11 02:21:54;;;;;;;68.57;43.80;;;;;;;8.31;58.15;100132.22;5027770;28;20092;-81
2021/04/11 02:24:21;;;;;;;67.40;40.67;;;;;;;8.32;58.12;100128.63;5028247;28;20049;-76
2021/04/11 02:26:47;;;;;;;70.18;40.28;;;;;;;8.35;58.06;100128.44;5028709;28;20041;-77
2021/04/11 02:29:16;;;;;;;70.47;42.15;;;;;;;8.38;58.01;100118.53;5028369;28;20493;-82
2021/04/11 02:31:42;;;;;;;79.53;44.05;;;;;;;8.44;57.93;100130.50;5029201;28;20144;-75
2021/04/11 02:34:13;;;;;;;72.07;43.83;;;;;;;8.50;57.89;100127.47;5028882;28;20076;-79
2021/04/11 02:36:44;;;;;;;72.15;41.70;;;;;;;8.57;57.66;100123.50;5027114;28;20053;-80
2021/04/11 02:39:14;;;;;;;63.53;41.97;;;;;;;8.64;57.68;100131.81;5028554;28;20049;-79
2021/04/11 02:41:42;;;;;;;78.35;43.13;;;;;;;8.68;57.48;100135.06;5028753;28;20421;-81
2021/04/11 02:44:09;;;;;;;87.18;51.00;;;;;;;8.68;57.44;100142.97;5028740;28;20069;-80
2021/04/11 02:46:37;;;;;;;74.05;45.97;;;;;;;8.64;57.63;100129.16;5028598;28;20057;-77
2021/04/11 02:49:04;;;;;;;74.28;45.55;;;;;;;8.67;57.63;100133.41;5028964;28;20042;-81
2021/04/11 02:51:35;;;;;;;64.72;43.20;;;;;;;8.69;57.63;100140.25;5027748;28;20113;-81
2021/04/11 02:54:04;;;;;;;62.25;38.63;;;;;;;8.66;57.73;100135.19;5025476;28;20480;-79
2021/04/11 02:56:31;;;;;;;62.10;36.42;;;;;;;8.60;57.52;100133.78;5024934;28;20056;-76
2021/04/11 02:58:58;;;;;;;61.80;36.92;;;;;;;8.51;57.80;100137.03;5026636;28;20049;-77
2021/04/11 03:01:30;;;;;;;59.55;39.05;;;;;;;8.46;58.00;100141.75;5025568;28;20056;-76
2021/04/11 03:03:57;;;;;;;59.47;35.03;;;;;;;8.42;57.98;100138.47;5025791;28;20055;-74
2021/04/11 03:06:27;;;;;;;65.45;39.08;;;;;;;8.30;58.21;100138.41;5024710;28;20046;-75
2021/04/11 03:09:04;;;;;;;71.07;41.47;;;;;;;8.23;58.37;100119.56;5025421;28;20111;-76
2021/04/11 03:11:36;;;;;;;67.97;41.08;;;;;;;8.21;58.52;100127.56;5025771;28;20057;-76
2021/04/11 03:14:07;;;;;;;63.05;41.88;;;;;;;8.21;58.78;100134.56;5026150;28;20274;-75
2021/04/11 03:16:35;;;;;;;65.03;41.33;;;;;;;8.19;58.81;100131.22;5025942;28;20140;-80
2021/04/11 03:19:03;;;;;;;71.53;44.13;;;;;;;8.16;58.93;100129.63;5025074;28;20049;-73
2021/04/11 03:21:29;;;;;;;66.97;41.35;;;;;;;8.13;59.01;100135.09;5025170;28;20115;-78
2021/04/11 03:23:58;;;;;;;57.45;39.47;;;;;;;8.13;59.07;100136.88;5025543;28;20041;-75
2021/04/11 03:26:29;;;;;;;66.05;40.88;;;;;;;8.06;59.30;100136.41;5026065;28;20551;-75
2021/04/11 03:29:02;;;;;;;72.28;43.53;;;;;;;7.96;59.52;100143.19;5025029;28;20057;-75
2021/04/11 03:31:34;;;;;;;69.57;42.50;;;;;;;7.83;59.83;100146.63;5025125;28;20140;-73
2021/04/11 03:34:03;;;;;;;65.93;42.50;;;;;;;7.75;59.97;100143.63;5026075;28;20053;-75
2021/04/11 03:36:31;;;;;;;68.22;44.22;;;;;;;7.68;60.23;100155.44;5023303;28;20061;-76
2021/04/11 03:38:59;;;;;;;69.07;43.03;;;;;;;7.63;60.12;100157.50;5026064;28;20053;-77
2021/04/11 03:41:30;;;;;;;72.47;42.75;;;;;;;7.60;60.13;100155.09;5025869;28;20045;-74
2021/04/11 03:43:59;;;;;;;63.38;41.03;;;;;;;7.51;60.41;100150.38;5024745;28;20054;-73
2021/04/11 03:46:33;;;;;;;62.05;39.30;;;;;;;7.47;60.33;100150.59;5025427;28;20486;-79
2021/04/11 03:49:05;;;;;;;70.90;43.38;;;;;;;7.40;60.24;100159.78;5025403;28;20254;-78
2021/04/11 03:51:37;;;;;;;68.25;40.95;;;;;;;7.30;60.39;100163.06;5024998;28;20699;-76
2021/04/11 03:54:13;;;;;;;68.07;45.00;;;;;;;7.26;60.39;100176.38;5025095;28;20046;-76
2021/04/11 03:56:40;;;;;;;;;;;;;;;7.40;59.59;100172.94;5026246;28;20158;-74
2021/04/11 03:59:08;;;;;;;83.40;44.88;;;;;;;7.14;60.39;100169.22;5026012;28;20070;-76
2021/04/11 04:01:44;;;;;;;63.03;41.08;;;;;;;7.09;60.62;100173.91;5024750;28;20425;-74
2021/04/11 04:04:15;;;;;;;69.78;43.05;;;;;;;7.11;60.89;100176.44;5025067;28;20049;-77
2021/04/11 04:06:56;;;;;;;70.90;42.83;;;;;;;7.08;60.85;100174.84;5023330;28;20049;-74
2021/04/11 04:09:23;;;;;;;75.20;45.30;;;;;;;7.07;61.10;100171.34;5024747;28;20052;-75
2021/04/11 04:12:05;;;;;;;77.10;42.00;;;;;;;7.11;60.95;100177.28;5024594;28;20057;-78
2021/04/11 04:14:47;;;;;;;70.47;43.85;;;;;;;7.16;60.92;100180.47;5024437;28;20064;-75
2021/04/11 04:17:25;;;;;;;73.55;44.55;;;;;;;7.17;60.93;100183.97;5025144;28;20125;-76
2021/04/11 04:20:02;;;;;;;62.10;39.58;;;;;;;7.21;60.68;100182.84;5024352;28;20084;-77
2021/04/11 04:22:41;;;;;;;62.63;41.17;;;;;;;7.24;60.75;100180.03;5024161;28;20045;-74
2021/04/11 04:25:20;;;;;;;65.03;40.70;;;;;;;7.34;60.63;100189.03;5025554;28;20049;-81
2021/04/11 04:28:04;;;;;;;63.75;39.70;;;;;;;7.67;60.15;100187.97;5024886;28;20050;-80
2021/04/11 04:30:41;;;;;;;65.10;39.92;;;;;;;7.98;59.43;100183.41;5024394;28;20046;-81
2021/04/11 04:33:21;;;;;;;63.88;40.92;;;;;;;8.28;59.01;100182.41;5025841;28;20049;-73
2021/04/11 04:35:54;;;;;;;61.00;39.72;;;;;;;8.58;58.55;100177.81;5024388;28;20062;-81
2021/04/11 04:38:26;;;;;;;61.20;38.80;;;;;;;8.92;58.16;100177.38;5025942;28;20141;-74
2021/04/11 04:41:06;;;;;;;60.28;38.30;;;;;;;9.27;57.51;100177.63;5025933;28;20045;-75
2021/04/11 04:43:45;;;;;;;59.45;38.47;;;;;;;9.64;56.85;100172.44;5025111;28;20055;-80
2021/04/11 04:46:15;;;;;;;58.28;37.58;;;;;;;10.02;56.17;100166.25;5027295;28;20123;-79
2021/04/11 04:48:47;;;;;;;59.15;37.28;;;;;;;10.43;55.56;100178.28;5026275;28;20056;-78
2021/04/11 04:51:19;;;;;;;52.88;35.85;;;;;;;10.83;54.73;100177.97;5024628;28;20064;-75
2021/04/11 04:53:53;;;;;;;59.08;35.35;;;;;;;11.18;54.09;100176.28;5026026;28;20045;-77
2021/04/11 04:56:28;;;;;;;53.00;35.85;;;;;;;11.49;53.36;100180.06;5025133;28;20049;-81
2021/04/11 04:58:59;;;;;;;58.00;36.97;;;;;;;11.82;52.48;100175.72;5025946;28;20061;-82
2021/04/11 05:01:31;;;;;;;57.22;37.50;;;;;;;12.17;51.93;100169.44;5025956;28;20053;-75
2021/04/11 05:04:02;;;;;;;56.60;36.78;;;;;;;12.49;51.20;100168.66;5025896;28;20139;-81
2021/04/11 05:06:33;;;;;;;61.78;39.05;;;;;;;12.77;50.75;100165.41;5024055;28;20049;-77
2021/04/11 05:09:04;;;;;;;62.50;40.40;;;;;;;12.98;50.33;100165.44;5026080;28;20630;-78
2021/04/11 05:11:38;;;;;;;55.78;38.85;;;;;;;13.17;49.88;100172.66;5025283;28;20060;-74
2021/04/11 05:14:09;;;;;;;52.40;35.28;;;;;;;13.42;49.13;100173.25;5027386;28;20469;-79
2021/04/11 05:16:41;;;;;;;54.10;37.53;;;;;;;13.70;48.50;100165.56;5025368;28;20041;-82
2021/04/11 05:19:11;;;;;;;50.92;36.97;;;;;;;13.87;48.03;100174.72;5026252;28;20079;-78
2021/04/11 05:21:42;;;;;;;58.10;38.28;;;;;;;14.04;47.67;100168.75;5026601;28;20052;-77
2021/04/11 05:24:14;;;;;;;49.25;36.17;;;;;;;14.14;47.28;100169.63;5027740;28;20045;-74
2021/04/11 05:26:45;;;;;;;52.15;38.55;;;;;;;13.89;47.41;100173.59;5030028;28;20059;-81
2021/04/11 05:29:19;;;;;;;56.65;37.88;;;;;;;13.37;48.39;100180.75;5030084;28;20050;-79
2021/04/11 05:31:46;;;;;;;57.97;38.75;;;;;;;12.97;49.09;100184.13;5034206;28;20056;-79
2021/04/11 05:34:17;;;;;;;55.20;41.25;;;;;;;12.64;49.78;100185.94;5033296;28;20114;-85
2021/04/11 05:36:55;;;;;;;57.97;38.00;;;;;;;12.38;50.39;100188.91;5027112;28;20045;-80
2021/04/11 05:39:29;;;;;;;64.93;38.97;;;;;;;12.24;50.59;100179.44;5029662;28;20049;-77
2021/04/11 05:42:05;;;;;;;56.17;36.03;;;;;;;12.11;50.75;100178.72;5024691;28;20049;-76
2021/04/11 05:44:38;;;;;;;54.45;35.90;;;;;;;12.01;50.79;100178.63;5028235;28;20045;-83
2021/04/11 05:47:13;;;;;;;55.67;34.72;;;;;;;11.96;51.10;100177.31;5027048;28;20515;-83
2021/04/11 05:49:48;;;;;;;53.22;35.55;;;;;;;11.95;51.05;100172.97;5026870;28;20049;-80
2021/04/11 05:52:19;;;;;;;47.28;32.35;;;;;;;11.93;50.97;100170.44;5027992;28;20069;-80
2021/04/11 05:54:49;;;;;;;48.03;32.95;;;;;;;11.94;51.09;100168.63;5024861;28;20096;-78
2021/04/11 05:57:23;;;;;;;52.00;35.17;;;;;;;11.96;51.11;100162.28;5024141;28;20049;-79
2021/04/11 05:59:54;;;;;;;50.47;33.22;;;;;;;11.95;51.33;100155.28;5026113;28;20641;-78
2021/04/11 06:02:29;;;;;;;45.08;31.92;;;;;;;12.00;51.06;100153.13;5024843;28;20065;-80
2021/04/11 06:05:01;;;;;;;41.83;29.95;;;;;;;12.09;50.80;100148.06;5026379;28;20042;-79
2021/04/11 06:07:32;;;;;;;47.08;30.75;;;;;;;12.13;50.70;100152.97;5021308;28;20049;-75
2021/04/11 06:10:03;;;;;;;41.22;28.25;;;;;;;12.22;50.35;100141.63;5023396;28;20107;-77
2021/04/11 06:12:38;;;;;;;47.22;30.55;;;;;;;12.32;50.18;100141.75;5022210;28;20410;-73
2021/04/11 06:15:10;;;;;;;40.78;26.58;;;;;;;12.46;49.80;100129.16;5022423;28;20046;-73
2021/04/11 06:17:37;;;;;;;37.90;25.83;;;;;;;12.53;49.52;100130.34;5023527;28;20133;-77
2021/04/11 06:20:06;;;;;;;35.47;24.73;;;;;;;12.65;49.15;100129.31;5021758;28;20103;-76
2021/04/11 06:22:39;;;;;;;37.38;22.92;;;;;;;12.76;48.59;100129.25;5022311;28;20056;-77
2021/04/11 06:25:13;;;;;;;38.80;22.90;;;;;;;12.88;48.42;100131.88;5025973;28;20054;-74
2021/04/11 06:27:48;;;;;;;33.45;22.02;;;;;;;13.02;48.04;100136.84;5025564;28;20049;-76
2021/04/11 06:30:18;;;;;;;33.00;20.98;;;;;;;13.12;47.59;100128.94;5024484;28;20056;-75
2021/04/11 06:32:48;;;;;;;32.63;21.30;;;;;;;13.24;47.41;100127.06;5028736;28;20049;-75
2021/04/11 06:35:21;;;;;;;38.45;24.98;;;;;;;13.35;47.07;100129.66;5037578;28;20050;-77
2021/04/11 06:37:48;;;;;;;36.92;22.83;;;;;;;13.50;46.77;100124.84;5029480;28;20045;-75
2021/04/11 06:40:30;;;;;;;34.75;22.55;;;;;;;13.64;46.69;100123.63;5032005;28;20041;-77
2021/04/11 06:43:19;;;;;;;39.50;25.63;;;;;;;13.77;46.65;100119.78;5027379;28;20687;-76
2021/04/11 06:45:55;;;;;;;33.58;23.55;;;;;;;13.90;46.05;100123.97;5025368;28;20056;-75
2021/04/11 06:48:39;;;;;;;41.78;25.10;;;;;;;14.01;45.80;100118.56;5025954;28;20045;-75
2021/04/11 06:51:37;;;;;;;38.45;24.40;;;;;;;14.11;45.67;100123.91;5024210;28;20127;-77
2021/04/11 06:54:46;;;;;;;36.72;26.30;;;;;;;14.26;45.67;100124.31;4962828;28;20043;-74
2021/04/11 06:57:33;;;;;;;33.45;22.98;;;;;;;14.39;45.16;100127.56;4962361;28;20050;-75
2021/04/11 07:00:11;;;;;;;31.13;23.52;;;;;;;14.49;44.53;100115.09;4962153;28;20085;-74
2021/04/11 07:03:26;;;;;;;38.63;24.98;;;;;;;14.61;44.54;100128.31;4963691;28;20686;-76
2021/04/11 07:06:26;;;;;;;32.13;21.92;;;;;;;14.77;44.39;100125.09;4961521;28;20054;-77
2021/04/11 07:09:10;;;;;;;36.10;23.67;;;;;;;14.82;43.99;100126.34;4963257;28;20061;-75
2021/04/11 07:12:09;;;;;;;35.65;23.45;;;;;;;14.88;43.86;100124.94;4961925;28;20081;-79
2021/04/11 07:15:09;;;;;;;35.15;21.38;;;;;;;15.02;43.56;100132.47;4963965;28;20070;-82
2021/04/11 07:18:11;;;;;;;29.83;19.08;;;;;;;15.10;43.44;100118.44;4964511;28;20070;-77
2021/04/11 07:20:51;;;;;;;30.90;20.02;;;;;;;15.19;43.34;100116.75;4962365;28;20047;-80
2021/04/11 07:23:54;;;;;;;29.08;19.67;;;;;;;15.38;42.96;100118.50;4966036;28;20105;-78
2021/04/11 07:26:44;;;;;;;26.33;19.95;;;;;;;15.54;42.55;100117.88;4905997;29;20160;-77
2021/04/11 07:29:45;;;;;;;25.50;16.80;;;;;;;15.78;41.96;100118.22;4850492;29;20711;-74
2021/04/11 07:32:26;;;;;;;26.55;17.00;;;;;;;16.14;41.48;100109.44;4927965;29;20067;-78
2021/04/11 07:35:21;;;;;;;28.38;18.70;;;;;;;16.34;41.32;100108.31;4926095;29;20050;-76
2021/04/11 07:38:11;;;;;;;27.58;17.73;;;;;;;16.49;41.00;100103.28;4918459;29;20111;-72
2021/04/11 07:40:55;;;;;;;21.77;15.27;;;;;;;16.59;40.56;100100.53;4920146;29;20086;-74
2021/04/11 07:43:41;;;;;;;23.52;15.02;;;;;;;16.70;39.99;100102.13;4924242;29;20771;-75
2021/04/11 07:46:31;;;;;;;20.95;14.65;;;;;;;16.81;40.08;100097.38;4921800;29;20054;-78
2021/04/11 07:49:14;;;;;;;22.70;14.10;;;;;;;17.06;39.75;100092.25;4920020;28;20761;-77
2021/04/11 07:51:57;;;;;;;24.70;16.75;;;;;;;17.22;38.91;100090.66;4921156;29;20056;-78
2021/04/11 07:54:42;;;;;;;21.80;14.27;;;;;;;17.32;38.47;100097.56;4921423;29;20056;-77
2021/04/11 07:57:24;;;;;;;18.42;11.80;;;;;;;17.65;37.75;100092.38;4919550;29;20203;-74
2021/04/11 08:00:08;;;;;;;19.45;12.55;;;;;;;18.00;36.93;100092.34;4921224;29;20056;-74
2021/04/11 08:03:12;;;;;;;21.83;14.05;;;;;;;18.33;36.53;100090.56;4941614;28;20050;-74
2021/04/11 08:06:16;;;;;;;16.85;11.55;;;;;;;18.45;36.58;100099.09;4854343;29;20575;-72
2021/04/11 08:09:13;;;;;;;18.95;13.10;;;;;;;18.53;36.90;100094.59;4881886;29;20112;-76
2021/04/11 08:12:30;;;;;;;21.92;15.68;;;;;;;18.66;36.56;100090.56;4882831;29;20086;-75
2021/04/11 08:15:10;;;;;;;22.55;14.63;;;;;;;18.71;36.25;100091.75;4792713;29;20060;-76
2021/04/11 08:17:45;;;;;;;19.75;14.40;;;;;;;18.76;36.08;100095.75;4806332;29;20058;-76
2021/04/11 08:20:25;;;;;;;20.23;13.20;;;;;;;18.77;35.80;100087.56;4808176;29;20050;-74
2021/04/11 08:23:36;;;;;;;17.35;11.65;;;;;;;18.90;36.15;100093.25;4808007;29;20127;-76
2021/04/11 08:26:23;;;;;;;20.67;13.25;;;;;;;19.05;35.89;100095.22;4772520;30;20047;-78
2021/04/11 08:29:44;;;;;;;20.95;11.98;;;;;;;19.30;35.51;100087.97;4770128;30;20119;-76
2021/04/11 08:32:45;;;;;;;16.48;11.68;;;;;;;19.33;34.57;100081.44;4769997;30;20775;-75
2021/04/11 08:35:26;;;;;;;12.50;9.52;;;;;;;19.42;33.89;100081.25;4754029;29;20081;-78
2021/04/11 08:38:19;;;;;;;14.43;9.90;;;;;;;19.51;33.51;100070.50;4750140;30;20052;-78
2021/04/11 08:41:04;;;;;;;18.38;11.52;;;;;;;19.65;32.92;100059.06;4754842;30;20130;-78
2021/04/11 08:43:47;;;;;;;16.42;9.52;;;;;;;19.81;32.39;100066.22;4815897;29;20128;-77
2021/04/11 08:46:26;;;;;;;13.43;9.10;;;;;;;19.86;32.21;100061.13;4825692;29;20049;-76
2021/04/11 08:49:05;;;;;;;17.27;9.63;;;;;;;20.19;31.66;100050.22;4826400;29;20375;-75
2021/04/11 08:51:43;;;;;;;15.35;9.32;;;;;;;20.52;31.14;100050.78;4899659;29;20055;-78
2021/04/11 08:54:24;;;;;;;12.10;9.35;;;;;;;20.87;30.54;100043.13;4917083;29;20043;-77
2021/04/11 08:56:58;;;;;;;15.68;10.15;;;;;;;20.95;30.18;100043.00;4917894;29;20583;-76
2021/04/11 08:59:33;;;;;;;14.50;8.57;;;;;;;20.96;29.60;100031.28;4917417;29;20052;-76
2021/04/11 09:02:29;;;;;;;12.70;7.57;;;;;;;21.05;29.14;100023.97;4972189;28;20050;-77
2021/04/11 09:05:05;;;;;;;13.73;8.07;;;;;;;21.06;28.69;100022.91;4994756;28;20129;-76
2021/04/11 09:07:56;;;;;;;14.32;8.43;;;;;;;21.21;29.00;100017.53;4996773;28;20064;-78
2021/04/11 09:10:41;;;;;;;12.30;7.38;;;;;;;21.34;29.02;100006.97;4995212;28;20193;-76
2021/04/11 09:13:22;;;;;;;9.70;6.80;;;;;;;21.52;28.66;99997.72;5017034;28;20290;-76
2021/04/11 09:15:54;;;;;;;13.80;7.70;;;;;;;21.78;28.42;99991.78;5018091;28;20099;-76
2021/04/11 09:18:34;;;;;;;11.38;6.57;;;;;;;21.91;27.81;99991.09;5017819;28;20037;-77
2021/04/11 09:21:18;;;;;;;9.18;5.88;;;;;;;21.72;27.58;99984.50;5019207;28;20602;-76
2021/04/11 09:23:59;;;;;;;10.40;5.93;;;;;;;21.73;27.60;99984.31;5018244;28;20055;-76
2021/04/11 09:26:46;;;;;;;12.30;7.60;;;;;;;21.84;27.14;99980.28;5019456;28;20478;-77
2021/04/11 09:29:30;;;;;;;13.48;7.88;;;;;;;21.89;26.92;99977.84;5018358;28;20712;-77
2021/04/11 09:32:09;;;;;;;9.13;5.70;;;;;;;21.86;26.55;99975.56;5021332;28;20493;-75
2021/04/11 09:35:01;;;;;;;9.52;5.75;;;;;;;21.77;26.49;99968.63;5020316;28;20053;-76
2021/04/11 09:38:03;;;;;;;7.70;4.20;;;;;;;21.71;26.22;99964.00;5017697;28;20057;-76
2021/04/11 09:40:47;;;;;;;8.85;3.90;;;;;;;21.67;26.11;99960.88;4957436;28;20043;-77
2021/04/11 09:43:45;;;;;;;8.02;3.90;;;;;;;21.73;25.23;99965.50;4956042;28;20626;-76
2021/04/11 09:46:33;;;;;;;7.43;2.95;;;;;;;21.68;24.33;99953.63;4899676;29;20063;-75
2021/04/11 09:49:23;;;;;;;4.60;2.90;;;;;;;21.83;24.13;99956.28;4900885;29;20056;-78
2021/04/11 09:52:11;;;;;;;11.93;4.60;;;;;;;21.96;24.93;99964.47;4898095;29;20108;-77
2021/04/11 09:54:44;;;;;;;8.30;5.65;;;;;;;22.17;24.64;99958.25;4899914;29;20705;-79
2021/04/11 09:57:44;;;;;;;6.15;2.85;;;;;;;22.20;24.61;99965.94;4899774;28;20052;-76
2021/04/11 10:00:22;;;;;;;7.82;2.75;;;;;;;22.18;24.27;99964.44;4830408;29;20677;-79
2021/04/11 10:03:05;;;;;;;6.07;2.53;;;;;;;22.21;24.37;99964.91;4830886;29;20050;-79
2021/04/11 10:05:48;;;;;;;5.93;2.50;;;;;;;22.33;24.77;99966.06;4831432;29;20084;-76
2021/04/11 10:08:34;;;;;;;6.32;3.40;;;;;;;22.26;25.24;99956.25;4829855;29;20196;-78
2021/04/11 10:11:12;;;;;;;6.13;2.65;;;;;;;22.26;25.11;99962.47;4828799;29;20056;-77
2021/04/11 10:14:08;;;;;;;7.20;3.30;;;;;;;22.37;25.65;99960.31;4829988;29;20054;-77
2021/04/11 10:16:44;;;;;;;4.25;2.55;;;;;;;22.21;25.57;99964.91;4820035;29;20056;-76
2021/04/11 10:19:28;;;;;;;4.05;2.58;;;;;;;21.98;25.76;99956.22;4864751;29;20239;-76
2021/04/11 10:22:11;;;;;;;5.60;2.70;;;;;;;21.86;25.84;99951.34;4869674;29;20702;-76
2021/04/11 10:24:45;;;;;;;7.55;2.65;;;;;;;21.80;26.83;99952.09;4941878;29;20055;-79
2021/04/11 10:27:21;;;;;;;4.60;2.80;;;;;;;21.90;26.74;99965.25;4940977;29;20059;-79
2021/04/11 10:29:49;;;;;;;5.07;2.65;;;;;;;21.85;26.79;99967.69;4940696;28;20288;-78
2021/04/11 10:32:23;;;;;;;5.63;3.28;;;;;;;21.93;27.05;99960.31;4942347;29;20051;-76
2021/04/11 10:35:01;;;;;;;4.18;2.80;;;;;;;21.84;26.60;99950.72;4949666;28;20047;-75
2021/04/11 10:37:34;;;;;;;6.50;3.28;;;;;;;21.80;26.74;99962.84;5020640;28;20045;-76
2021/04/11 10:40:19;;;;;;;6.63;3.33;;;;;;;21.80;26.75;99953.97;5022623;28;20480;-76
2021/04/11 10:42:56;;;;;;;5.72;2.38;;;;;;;21.80;27.00;99952.09;5022057;28;20104;-75
2021/04/11 10:45:30;;;;;;;6.18;3.03;;;;;;;21.79;27.47;99939.72;5021573;28;20715;-75
2021/04/11 10:48:16;;;;;;;4.18;2.47;;;;;;;;;;5021222;28;20054;-75
2021/04/11 10:50:46;;;;;;;;;;;;;;;22.13;27.41;99948.91;5022121;28;20076;-75
2021/04/11 10:53:39;;;;;;;6.22;2.65;;;;;;;22.13;27.09;99944.34;5023976;28;20341;-77
2021/04/11 10:56:40;;;;;;;7.95;4.78;;;;;;;22.24;27.34;99945.69;5022281;28;20041;-75
2021/04/11 10:59:24;;;;;;;5.57;3.47;;;;;;;22.35;27.18;99938.16;5022628;28;20065;-76
2021/04/11 11:02:05;;;;;;;8.10;3.47;;;;;;;22.26;27.30;99932.91;5021904;28;20046;-75
2021/04/11 11:05:01;;;;;;;6.25;3.20;;;;;;;22.14;27.26;99923.66;5022564;28;20053;-75
2021/04/11 11:07:41;;;;;;;4.35;2.92;;;;;;;21.88;27.96;99932.34;5020526;28;20154;-75
2021/04/11 11:10:19;;;;;;;5.32;3.05;;;;;;;21.78;27.55;99921.91;5021529;28;20046;-75
2021/04/11 11:13:08;;;;;;;3.40;2.30;;;;;;;21.67;27.99;99908.97;5022874;28;20050;-76
2021/04/11 11:15:47;;;;;;;5.05;3.10;;;;;;;21.63;28.39;99913.91;5020509;28;20927;-76
2021/04/11 11:18:27;;;;;;;5.22;3.08;;;;;;;21.70;28.30;99924.75;5023289;28;20050;-78
2021/04/11 11:21:09;;;;;;;4.68;3.20;;;;;;;21.72;27.85;99920.00;5024435;28;20050;-77
2021/04/11 11:24:01;;;;;;;6.35;3.58;;;;;;;21.81;28.19;99905.41;5022191;28;20045;-75
2021/04/11 11:26:59;;;;;;;7.97;3.10;;;;;;;21.92;27.96;99918.31;5023380;28;20068;-79
2021/04/11 11:29:55;;;;;;;5.88;3.65;;;;;;;22.11;28.03;99930.28;5021460;28;20050;-79
2021/04/11 11:32:26;;;;;;;6.13;2.92;;;;;;;22.24;26.54;99928.72;5023032;28;20042;-78
2021/04/11 11:34:59;;;;;;;10.68;3.42;;;;;;;22.29;25.83;99918.22;5022593;28;20076;-78
2021/04/11 11:37:51;;;;;;;6.75;2.75;;;;;;;22.45;25.08;99914.38;5025274;28;20132;-79
2021/04/11 11:40:28;;;;;;;5.53;2.50;;;;;;;22.54;25.17;99910.50;5020976;28;20053;-76
2021/04/11 11:43:18;;;;;;;7.07;3.50;;;;;;;22.60;24.83;99911.56;5023078;28;20053;-80
2021/04/11 11:45:54;;;;;;;7.93;3.17;;;;;;;22.67;24.48;99915.13;5024455;28;20045;-81
2021/04/11 11:48:38;;;;;;;7.47;2.05;;;;;;;22.70;24.32;99912.06;5022264;28;20489;-75
2021/04/11 11:51:09;;;;;;;4.85;2.40;;;;;;;22.60;24.12;99901.66;5020227;28;20079;-78
2021/04/11 11:53:42;;;;;;;5.03;2.13;;;;;;;22.57;24.39;99891.28;5022268;28;20429;-78
2021/04/11 11:56:19;;;;;;;6.63;3.60;;;;;;;22.63;24.20;99897.72;5023049;28;20049;-78
2021/04/11 11:58:52;;;;;;;4.47;2.33;;;;;;;22.64;24.12;99900.22;5020999;28;20676;-76
2021/04/11 12:01:31;;;;;;;5.85;2.65;;;;;;;22.61;23.75;99903.31;5019992;28;20053;-77
2021/04/11 12:04:23;;;;;;;4.10;2.10;;;;;;;22.56;22.99;99891.47;5022027;28;20046;-81